Time;durP1;ratioP1;P1;durP2;ratioP2;P2;SDS_P1;SDS_P2;PMS_P1;PMS_P2;Temp;Humidity;BMP_temperature;BMP_pressure;BME280_temperature;BME280_humidity;BME280_pressure;Samples;Min_cycle;Max_cycle;Signal;HPM_P1;HPM_P2
2022/09/03 00:02:57;;;;;;;2.40;1.30;;;23.40;55.30;;;;;;220111;1267;24390;-55
2022/09/03 00:08:09;;;;;;;2.60;1.70;;;23.40;55.80;;;;;;220173;1267;22528;-55
2022/09/03 00:13:21;;;;;;;2.60;1.60;;;23.40;55.90;;;;;;220157;1271;24250;-56
2022/09/03 00:18:30;;;;;;;2.70;1.60;;;23.40;55.80;;;;;;220154;1267;22825;-54
2022/09/03 00:23:47;;;;;;;2.00;1.40;;;23.40;55.90;;;;;;220124;1270;22629;-55
2022/09/03 00:29:18;;;;;;;2.40;1.10;;;23.30;56.10;;;;;;220121;1267;24710;-55
2022/09/03 00:34:27;;;;;;;3.10;1.30;;;23.30;55.80;;;;;;220460;1267;22593;-53
2022/09/03 00:39:31;;;;;;;3.10;1.70;;;23.30;55.80;;;;;;220119;1267;22676;-55
2022/09/03 00:44:43;;;;;;;1.80;1.20;;;23.30;56.00;;;;;;220534;1267;22592;-56
2022/09/03 00:50:03;;;;;;;2.90;1.60;;;23.30;55.80;;;;;;220347;1270;26384;-56
2022/09/03 00:55:15;;;;;;;2.50;1.50;;;23.30;55.70;;;;;;220508;1267;22526;-53
2022/09/03 01:00:20;;;;;;;2.90;1.50;;;23.30;55.70;;;;;;220114;1267;22592;-57
2022/09/03 01:05:42;;;;;;;2.10;1.30;;;23.30;55.60;;;;;;220322;1267;25473;-52
2022/09/03 01:11:01;;;;;;;2.70;1.20;;;23.20;55.80;;;;;;220136;1267;24214;-54
2022/09/03 01:16:21;;;;;;;2.00;1.20;;;23.20;55.70;;;;;;220262;1268;22581;-54
2022/09/03 01:22:02;;;;;;;2.60;1.30;;;23.20;55.40;;;;;;220840;1268;24217;-57
2022/09/03 01:27:24;;;;;;;2.70;1.60;;;23.20;55.40;;;;;;220528;1267;22578;-55
2022/09/03 01:32:44;;;;;;;1.90;1.20;;;23.20;55.20;;;;;;220268;1271;25288;-55
2022/09/03 01:38:20;;;;;;;1.70;1.20;;;23.20;56.00;;;;;;220367;1267;26553;-55
2022/09/03 01:43:37;;;;;;;2.10;1.20;;;23.20;55.20;;;;;;220257;1269;26626;-55
2022/09/03 01:49:15;;;;;;;2.30;1.30;;;23.20;55.10;;;;;;220217;1267;24275;-55
2022/09/03 01:54:23;;;;;;;2.30;1.20;;;23.20;55.40;;;;;;220137;1267;24281;-55
2022/09/03 01:59:44;;;;;;;2.70;1.30;;;23.20;55.70;;;;;;220239;1271;23042;-54
2022/09/03 02:05:07;;;;;;;2.70;1.40;;;23.10;55.50;;;;;;220295;1268;24266;-54
2022/09/03 02:10:20;;;;;;;2.50;1.40;;;23.10;55.50;;;;;;220550;1271;22554;-53
2022/09/03 02:15:24;;;;;;;2.30;1.50;;;23.10;55.50;;;;;;220488;1268;22531;-56
2022/09/03 02:20:30;;;;;;;2.30;1.40;;;23.10;55.40;;;;;;220278;1271;26483;-54
2022/09/03 02:25:41;;;;;;;1.90;1.20;;;23.10;56.00;;;;;;220364;1268;24215;-56
2022/09/03 02:30:45;;;;;;;3.50;1.60;;;23.00;55.50;;;;;;220365;1268;25444;-53
2022/09/03 02:35:49;;;;;;;3.60;1.70;;;23.00;55.50;;;;;;220585;1269;25313;-57
2022/09/03 02:40:54;;;;;;;2.80;1.30;;;23.00;55.70;;;;;;220303;1271;23400;-56
2022/09/03 02:46:02;;;;;;;2.20;1.50;;;23.00;55.50;;;;;;220183;1268;22531;-55
2022/09/03 02:51:06;;;;;;;2.60;1.50;;;23.00;55.50;;;;;;220495;1271;25495;-54
2022/09/03 02:56:16;;;;;;;2.10;1.40;;;23.00;55.30;;;;;;220184;1267;22539;-56
2022/09/03 03:01:20;;;;;;;2.10;1.30;;;23.00;55.50;;;;;;220159;1268;26954;-56
2022/09/03 03:06:26;;;;;;;2.70;1.60;;;23.00;55.80;;;;;;220274;1271;25161;-54
2022/09/03 03:11:30;;;;;;;2.20;1.20;;;23.00;55.30;;;;;;220602;1268;24269;-57
2022/09/03 03:16:34;;;;;;;2.60;1.40;;;22.90;55.40;;;;;;220271;1268;22525;-54
2022/09/03 03:21:39;;;;;;;2.20;1.30;;;22.90;55.50;;;;;;219907;1269;22531;-55
2022/09/03 03:26:42;;;;;;;2.50;1.40;;;22.90;55.40;;;;;;220145;1268;22654;-55
2022/09/03 03:31:46;;;;;;;2.30;1.40;;;22.90;55.40;;;;;;220048;1268;25239;-54
2022/09/03 03:36:50;;;;;;;2.70;1.50;;;22.90;55.40;;;;;;220182;1268;22563;-56
2022/09/03 03:41:55;;;;;;;3.80;1.60;;;22.90;55.50;;;;;;220161;1268;24167;-55
2022/09/03 03:46:58;;;;;;;2.20;1.30;;;22.90;55.40;;;;;;220162;1268;22587;-51
2022/09/03 03:52:03;;;;;;;1.90;1.20;;;22.90;55.30;;;;;;220340;1268;22701;-53
2022/09/03 03:57:07;;;;;;;3.20;1.70;;;22.90;55.50;;;;;;220261;1268;22531;-57
2022/09/03 04:02:11;;;;;;;2.70;1.30;;;22.90;55.50;;;;;;220784;1268;23938;-53
2022/09/03 04:07:15;;;;;;;2.70;1.30;;;22.80;55.70;;;;;;220206;1268;22527;-55
2022/09/03 04:12:18;;;;;;;2.50;1.30;;;22.80;55.40;;;;;;220218;1268;23164;-57
2022/09/03 04:17:22;;;;;;;2.80;1.50;;;22.80;55.50;;;;;;220432;1268;24218;-53
2022/09/03 04:22:28;;;;;;;2.20;1.40;;;22.80;55.50;;;;;;220321;1268;25237;-54
2022/09/03 04:27:32;;;;;;;3.20;1.50;;;22.80;55.40;;;;;;220186;1270;25534;-53
2022/09/03 04:32:54;;;;;;;2.60;1.20;;;22.80;55.40;;;;;;220253;1268;25233;-52
2022/09/03 04:37:58;;;;;;;2.50;1.20;;;22.80;55.40;;;;;;219922;1271;24232;-55
2022/09/03 04:43:03;;;;;;;3.50;1.70;;;22.80;55.40;;;;;;220135;1271;22725;-56
2022/09/03 04:48:09;;;;;;;3.00;1.40;;;22.80;55.40;;;;;;220068;1268;22737;-52
2022/09/03 04:53:13;;;;;;;2.40;1.30;;;22.70;55.40;;;;;;219403;1269;1513220;-55
2022/09/03 04:58:16;;;;;;;2.20;1.50;;;22.70;55.40;;;;;;220230;1267;22533;-53
2022/09/03 05:03:21;;;;;;;3.40;1.70;;;22.80;55.50;;;;;;220229;1267;24228;-58
2022/09/03 05:08:25;;;;;;;2.60;1.50;;;22.70;55.40;;;;;;220372;1267;22596;-54
2022/09/03 05:13:30;;;;;;;2.70;1.60;;;22.70;55.40;;;;;;220395;1268;22534;-52
2022/09/03 05:18:34;;;;;;;2.30;1.30;;;22.70;55.40;;;;;;220161;1267;24224;-57
2022/09/03 05:23:41;;;;;;;2.90;1.50;;;22.70;55.40;;;;;;220106;1270;22784;-55
2022/09/03 05:28:45;;;;;;;4.70;1.60;;;22.70;55.40;;;;;;220209;1268;22532;-54
2022/09/03 05:33:51;;;;;;;4.40;1.30;;;22.70;55.40;;;;;;220475;1267;22614;-54
2022/09/03 05:38:56;;;;;;;3.30;1.60;;;22.70;55.50;;;;;;220218;1270;22619;-53
2022/09/03 05:44:02;;;;;;;3.40;1.90;;;22.70;55.30;;;;;;220240;1268;22567;-52
2022/09/03 05:49:07;;;;;;;2.20;1.30;;;22.70;55.30;;;;;;220046;1270;23931;-54
2022/09/03 05:54:11;;;;;;;2.70;1.70;;;22.70;55.20;;;;;;220153;1267;22532;-56
2022/09/03 05:59:22;;;;;;;;;;;22.70;55.20;;;;;;220614;1267;24309;-52
2022/09/03 06:04:31;;;;;;;2.80;1.50;;;22.70;55.20;;;;;;220002;1267;22547;-56
2022/09/03 06:09:35;;;;;;;2.40;1.60;;;22.70;55.20;;;;;;220392;1268;22716;-53
2022/09/03 06:14:39;;;;;;;2.80;1.60;;;22.70;55.20;;;;;;220055;1268;25314;-53
2022/09/03 06:19:42;;;;;;;3.00;1.70;;;22.70;55.10;;;;;;220124;1267;22620;-55
2022/09/03 06:24:46;;;;;;;2.30;1.50;;;22.70;55.10;;;;;;220251;1267;25355;-54
2022/09/03 06:29:50;;;;;;;3.70;1.60;;;22.70;55.00;;;;;;220591;1267;25557;-54
2022/09/03 06:34:57;;;;;;;2.90;1.60;;;22.70;55.00;;;;;;220386;1267;24318;-55
2022/09/03 06:40:02;;;;;;;3.00;1.60;;;22.70;54.90;;;;;;220443;1267;22601;-53
2022/09/03 06:45:08;;;;;;;2.50;1.40;;;22.70;54.90;;;;;;220356;1267;25333;-55
2022/09/03 06:50:18;;;;;;;3.90;1.90;;;22.70;55.20;;;;;;220631;1267;22528;-56
2022/09/03 06:55:26;;;;;;;2.70;1.30;;;22.70;54.90;;;;;;220819;1267;22545;-55
2022/09/03 07:00:30;;;;;;;2.50;1.80;;;22.70;54.80;;;;;;220459;1267;24261;-53
2022/09/03 07:05:34;;;;;;;2.70;1.40;;;22.80;54.80;;;;;;220173;1267;22521;-55
2022/09/03 07:10:38;;;;;;;4.30;1.60;;;22.80;54.80;;;;;;220166;1267;22534;-55
2022/09/03 07:15:45;;;;;;;2.40;1.50;;;22.80;54.70;;;;;;220484;1267;22567;-55
2022/09/03 07:20:49;;;;;;;2.50;1.60;;;22.80;54.80;;;;;;220603;1267;22714;-55
2022/09/03 07:25:55;;;;;;;2.60;1.60;;;22.80;54.60;;;;;;220389;1267;22528;-55
2022/09/03 07:31:10;;;;;;;3.70;1.90;;;22.80;54.60;;;;;;220249;1270;23043;-52
2022/09/03 07:36:16;;;;;;;2.40;1.40;;;22.80;54.50;;;;;;220202;1267;24240;-55
2022/09/03 07:41:26;;;;;;;2.80;1.80;;;22.80;54.50;;;;;;220426;1267;23971;-57
2022/09/03 07:46:39;;;;;;;3.80;1.40;;;22.90;54.80;;;;;;220263;1267;24205;-56
2022/09/03 07:51:49;;;;;;;2.30;1.60;;;22.90;54.40;;;;;;220283;1267;22614;-52
2022/09/03 07:56:56;;;;;;;2.70;1.50;;;22.90;54.50;;;;;;220328;1267;22575;-55
2022/09/03 08:02:04;;;;;;;2.40;1.50;;;22.90;54.40;;;;;;220086;1269;24321;-54
2022/09/03 08:07:13;;;;;;;2.80;1.70;;;22.90;54.50;;;;;;220173;1270;23882;-54
2022/09/03 08:12:17;;;;;;;2.90;1.60;;;22.90;54.30;;;;;;220193;1268;22593;-50
2022/09/03 08:17:25;;;;;;;4.00;1.60;;;22.90;54.60;;;;;;220506;1267;24218;-53
2022/09/03 08:22:36;;;;;;;2.40;1.60;;;23.00;54.50;;;;;;220297;1267;24303;-52
2022/09/03 08:27:40;;;;;;;2.80;1.40;;;23.00;55.00;;;;;;220186;1267;24218;-56
2022/09/03 08:32:43;;;;;;;2.90;1.70;;;23.00;55.00;;;;;;220196;1267;22608;-56
2022/09/03 08:37:52;;;;;;;3.70;1.70;;;23.00;54.40;;;;;;220331;1267;22997;-54
2022/09/03 08:43:19;;;;;;;3.00;1.60;;;23.10;54.50;;;;;;220377;1267;25363;-52
2022/09/03 08:48:27;;;;;;;3.80;1.70;;;23.10;54.40;;;;;;220263;1267;24209;-55
2022/09/03 08:53:54;;;;;;;2.80;1.70;;;23.10;54.20;;;;;;220144;1267;22528;-55
2022/09/03 08:59:00;;;;;;;4.30;1.90;;;23.10;54.20;;;;;;220095;1267;22661;-52
2022/09/03 09:04:33;;;;;;;3.10;1.90;;;23.20;54.60;;;;;;220348;1267;25369;-52
2022/09/03 09:10:19;;;;;;;3.30;1.70;;;23.20;54.70;;;;;;219974;1270;22549;-52
2022/09/03 09:15:36;;;;;;;2.70;1.70;;;23.20;54.40;;;;;;220123;1267;24255;-54
2022/09/03 09:20:51;;;;;;;3.30;1.50;;;23.30;54.30;;;;;;220306;1268;24225;-55
2022/09/03 09:25:58;;;;;;;4.20;2.10;;;23.30;54.10;;;;;;220165;1267;24233;-52
2022/09/03 09:31:06;;;;;;;3.60;1.80;;;23.30;54.00;;;;;;220064;1267;25218;-53
2022/09/03 09:36:18;;;;;;;3.40;2.00;;;23.40;54.00;;;;;;220524;1267;25509;-55
2022/09/03 09:41:23;;;;;;;2.70;1.60;;;23.40;54.40;;;;;;220370;1267;25513;-55
2022/09/03 09:46:38;;;;;;;3.20;1.90;;;23.50;54.00;;;;;;220491;1267;26057;-54
2022/09/03 09:51:45;;;;;;;3.60;1.90;;;23.50;53.50;;;;;;220357;1267;23166;-52
2022/09/03 09:57:00;;;;;;;3.90;2.20;;;23.50;53.80;;;;;;220322;1267;22552;-55
2022/09/03 10:02:27;;;;;;;4.80;2.20;;;23.60;53.70;;;;;;220536;1267;24213;-54
2022/09/03 10:07:31;;;;;;;3.80;1.70;;;23.70;53.60;;;;;;220285;1267;22698;-53
2022/09/03 10:12:42;;;;;;;3.10;1.80;;;23.70;53.50;;;;;;220096;1267;22590;-53
2022/09/03 10:17:56;;;;;;;5.60;2.00;;;23.80;53.40;;;;;;220440;1267;22541;-53
2022/09/03 10:23:09;;;;;;;2.70;1.90;;;23.80;53.30;;;;;;220789;1267;22537;-55
2022/09/03 10:28:12;;;;;;;3.50;2.00;;;23.80;53.20;;;;;;220629;1267;22609;-56
2022/09/03 10:33:24;;;;;;;3.50;2.10;;;23.90;53.10;;;;;;220398;1267;22544;-51
2022/09/03 10:38:32;;;;;;;2.80;1.90;;;23.90;53.00;;;;;;220351;1267;24257;-52
2022/09/03 10:43:43;;;;;;;3.20;1.90;;;24.00;53.00;;;;;;220358;1267;22524;-54
2022/09/03 10:49:12;;;;;;;3.90;2.20;;;24.00;52.90;;;;;;220212;1267;23955;-51
2022/09/03 10:54:36;;;;;;;3.80;2.10;;;24.10;53.20;;;;;;220487;1267;23957;-53
2022/09/03 11:00:09;;;;;;;3.20;1.90;;;24.10;53.10;;;;;;220209;1267;24216;-55
2022/09/03 11:05:31;;;;;;;3.90;2.30;;;24.10;52.70;;;;;;220026;1267;24826;-54
2022/09/03 11:10:56;;;;;;;5.50;2.30;;;24.20;52.80;;;;;;219869;1269;25274;-53
2022/09/03 11:16:25;;;;;;;3.40;2.10;;;24.20;52.80;;;;;;220228;1267;22699;-52
2022/09/03 11:21:41;;;;;;;2.50;1.50;;;24.20;52.70;;;;;;220102;1267;22547;-53
2022/09/03 11:27:02;;;;;;;3.80;2.30;;;24.30;52.70;;;;;;220317;1267;22547;-53
2022/09/03 11:32:23;;;;;;;6.50;2.30;;;24.30;52.80;;;;;;220254;1267;24853;-54
2022/09/03 11:37:51;;;;;;;3.40;2.00;;;24.30;52.70;;;;;;219974;1267;25306;-56
2022/09/03 11:43:31;;;;;;;4.30;2.00;;;24.30;53.30;;;;;;220612;1267;24228;-55
2022/09/03 11:48:37;;;;;;;2.90;1.80;;;24.40;52.70;;;;;;220297;1268;22554;-54
2022/09/03 11:54:12;;;;;;;3.00;2.00;;;24.40;52.80;;;;;;220109;1267;24225;-52
2022/09/03 11:59:32;;;;;;;3.10;2.00;;;24.40;53.00;;;;;;220374;1267;24210;-56
2022/09/03 12:05:04;;;;;;;3.50;2.10;;;24.40;52.70;;;;;;220132;1267;25330;-52
2022/09/03 12:10:12;;;;;;;3.70;2.00;;;24.40;52.70;;;;;;220615;1270;25258;-55
2022/09/03 12:15:36;;;;;;;3.20;2.00;;;24.40;52.60;;;;;;220556;1268;26519;-54
2022/09/03 12:20:40;;;;;;;2.60;1.80;;;24.40;52.50;;;;;;220354;1267;24033;-54
2022/09/03 12:25:48;;;;;;;5.70;2.30;;;24.40;52.50;;;;;;220629;1267;25241;-54
2022/09/03 12:30:52;;;;;;;2.50;1.70;;;24.50;52.80;;;;;;220128;1267;22720;-55
2022/09/03 12:35:58;;;;;;;5.70;2.30;;;24.40;52.50;;;;;;220041;1267;22580;-55
2022/09/03 12:41:03;;;;;;;3.70;2.20;;;24.40;52.70;;;;;;220114;1267;22553;-54
2022/09/03 12:46:38;;;;;;;2.70;1.70;;;24.40;52.80;;;;;;220074;1267;25308;-54
2022/09/03 12:52:53;;;;;;;3.10;2.00;;;24.30;52.40;;;;;;219882;1268;22577;-55
2022/09/03 12:58:24;;;;;;;3.60;2.10;;;24.30;53.10;;;;;;220059;1267;25592;-52
2022/09/03 13:03:47;;;;;;;3.60;2.00;;;24.40;52.80;;;;;;220150;1267;24119;-54
2022/09/03 13:09:02;;;;;;;6.00;2.20;;;24.40;51.70;;;;;;220052;1269;25905;-55
2022/09/03 13:14:16;;;;;;;3.30;2.00;;;24.40;52.80;;;;;;219941;1270;24949;-54
2022/09/03 13:19:36;;;;;;;3.10;2.00;;;24.40;51.90;;;;;;220862;1267;22528;-57
2022/09/03 13:25:00;;;;;;;4.90;2.50;;;24.30;51.50;;;;;;220159;1267;24225;-57
2022/09/03 13:30:18;;;;;;;3.50;2.40;;;24.30;52.00;;;;;;220501;1267;24466;-53
2022/09/03 13:35:32;;;;;;;4.60;2.20;;;24.30;51.50;;;;;;220194;1267;22549;-55
2022/09/03 13:40:57;;;;;;;3.90;2.20;;;24.30;51.40;;;;;;220077;1267;24192;-55
2022/09/03 13:46:28;;;;;;;3.80;2.10;;;24.40;51.50;;;;;;220280;1267;23028;-55
2022/09/03 13:52:02;;;;;;;4.90;1.90;;;24.40;51.40;;;;;;220422;1267;22831;-53
2022/09/03 13:57:46;;;;;;;3.00;2.00;;;24.40;52.40;;;;;;220363;1267;22685;-53
2022/09/03 14:03:04;;;;;;;4.30;2.20;;;24.40;51.60;;;;;;219339;1274;23881;-53
2022/09/03 14:08:16;;;;;;;4.20;2.20;;;24.40;52.30;;;;;;220060;1267;24716;-53
2022/09/03 14:13:38;;;;;;;3.90;2.40;;;24.40;52.00;;;;;;220154;1267;22554;-55
2022/09/03 14:18:55;;;;;;;4.40;2.40;;;24.40;52.40;;;;;;220259;1267;22820;-55
2022/09/03 14:24:22;;;;;;;8.90;4.90;;;24.40;51.50;;;;;;220462;1267;24302;-56
2022/09/03 14:29:29;;;;;;;14.10;11.10;;;24.30;51.60;;;;;;220298;1267;24257;-55
2022/09/03 14:35:13;;;;;;;6.30;4.50;;;24.30;51.70;;;;;;220299;1267;22739;-55
2022/09/03 14:40:28;;;;;;;5.80;2.90;;;24.30;52.20;;;;;;220060;1267;25255;-54
2022/09/03 14:46:22;;;;;;;5.40;3.70;;;24.30;51.80;;;;;;220090;1267;22977;-52
2022/09/03 14:51:43;;;;;;;4.90;3.50;;;24.30;51.60;;;;;;219612;1267;22686;-55
2022/09/03 14:57:11;;;;;;;9.20;4.30;;;24.30;52.30;;;;;;220207;1267;22614;-52
2022/09/03 15:02:21;;;;;;;4.30;3.30;;;24.30;52.00;;;;;;220202;1269;22540;-54
2022/09/03 15:08:02;;;;;;;4.70;3.20;;;24.20;52.00;;;;;;220304;1267;22541;-54
2022/09/03 15:13:24;;;;;;;6.80;3.10;;;24.20;52.00;;;;;;219996;1270;22617;-55
2022/09/03 15:18:37;;;;;;;4.60;3.40;;;24.20;52.20;;;;;;220079;1267;22721;-55
2022/09/03 15:24:07;;;;;;;4.90;3.30;;;24.20;52.50;;;;;;220405;1267;23810;-55
2022/09/03 15:29:26;;;;;;;4.40;3.30;;;24.20;52.40;;;;;;220172;1266;22978;-55
2022/09/03 15:34:45;;;;;;;5.30;3.50;;;24.20;52.30;;;;;;220136;1267;22692;-54
2022/09/03 15:40:00;;;;;;;6.60;3.70;;;24.10;52.60;;;;;;220160;1267;25361;-53
2022/09/03 15:45:15;;;;;;;4.20;3.00;;;24.10;52.80;;;;;;220157;1267;22545;-53
2022/09/03 15:50:25;;;;;;;5.30;3.50;;;24.10;52.60;;;;;;220127;1267;22701;-54
2022/09/03 15:55:32;;;;;;;;;;;24.10;52.70;;;;;;220267;1267;22512;-55
2022/09/03 16:00:53;;;;;;;4.20;3.20;;;24.10;52.90;;;;;;220178;1267;24264;-54
2022/09/03 16:06:05;;;;;;;4.80;3.30;;;24.10;53.00;;;;;;220070;1267;22554;-55
2022/09/03 16:11:17;;;;;;;5.20;3.20;;;24.10;53.00;;;;;;220452;1267;24259;-53
2022/09/03 16:16:29;;;;;;;4.60;3.30;;;24.00;53.40;;;;;;220256;1267;26459;-56
2022/09/03 16:22:00;;;;;;;5.10;3.40;;;24.00;53.80;;;;;;220088;1267;22729;-56
2022/09/03 16:27:36;;;;;;;4.40;3.30;;;24.00;53.10;;;;;;220356;1267;22551;-54
2022/09/03 16:33:08;;;;;;;4.40;3.10;;;24.00;53.10;;;;;;220266;1270;25297;-53
2022/09/03 16:38:28;;;;;;;5.40;3.60;;;24.00;53.10;;;;;;220277;1267;23041;-52
2022/09/03 16:43:47;;;;;;;5.50;3.50;;;24.00;53.20;;;;;;220292;1267;24025;-55
2022/09/03 16:48:51;;;;;;;5.70;4.10;;;24.00;53.60;;;;;;220537;1267;22698;-55
2022/09/03 16:54:37;;;;;;;5.10;3.70;;;24.00;53.40;;;;;;218974;1267;1468432;-54
2022/09/03 17:00:22;;;;;;;3.80;2.60;;;24.00;53.40;;;;;;220287;1267;24778;-54
2022/09/03 17:06:36;;;;;;;5.40;3.40;;;23.90;53.40;;;;;;220243;1267;24292;-54
2022/09/03 17:11:51;;;;;;;5.00;2.70;;;23.90;53.80;;;;;;219822;1267;22525;-57
2022/09/03 17:17:25;;;;;;;4.90;3.10;;;23.90;53.50;;;;;;220094;1267;22542;-53
2022/09/03 17:22:44;;;;;;;4.30;3.00;;;23.90;53.60;;;;;;220265;1267;22547;-55
2022/09/03 17:28:02;;;;;;;13.60;3.60;;;23.90;53.60;;;;;;220246;1267;22991;-53
2022/09/03 17:33:44;;;;;;;7.60;3.50;;;23.90;53.60;;;;;;220436;1267;23944;-56
2022/09/03 17:39:05;;;;;;;6.90;3.50;;;23.90;53.80;;;;;;220482;1267;24304;-56
2022/09/03 17:44:41;;;;;;;5.70;3.50;;;24.00;53.50;;;;;;219957;1267;22626;-59
2022/09/03 17:49:57;;;;;;;12.90;4.00;;;23.90;53.60;;;;;;219914;1267;24909;-53
2022/09/03 17:55:20;;;;;;;14.60;3.80;;;23.80;54.30;;;;;;220147;1267;24158;-51
2022/09/03 18:00:44;;;;;;;7.50;3.80;;;23.50;53.30;;;;;;220224;1268;22685;-54
2022/09/03 18:05:59;;;;;;;16.20;4.90;;;23.30;53.30;;;;;;220129;1266;22812;-50
2022/09/03 18:11:19;;;;;;;9.60;4.80;;;23.20;53.80;;;;;;220243;1267;22845;-48
2022/09/03 18:16:30;;;;;;;19.20;5.90;;;23.10;53.70;;;;;;220351;1267;23629;-57
2022/09/03 20:15:23;;;;;;;11.00;5.10;;;23.20;55.60;;;;;;220013;1270;25461;-60
2022/09/03 20:20:48;;;;;;;9.20;5.40;;;23.10;55.70;;;;;;220301;1267;25344;-58
2022/09/03 20:26:20;;;;;;;15.70;6.10;;;23.20;55.20;;;;;;220341;1270;24322;-60
2022/09/03 20:31:47;;;;;;;14.00;6.30;;;23.20;56.60;;;;;;220273;1270;25343;-60
2022/09/03 20:37:08;;;;;;;11.50;6.10;;;23.30;57.60;;;;;;220108;1267;23997;-61
2022/09/03 20:42:48;;;;;;;22.50;6.30;;;23.30;58.20;;;;;;220056;1267;22595;-62
2022/09/03 20:48:06;;;;;;;20.00;5.80;;;23.30;58.30;;;;;;219975;1268;22561;-60
2022/09/03 20:53:37;;;;;;;12.90;5.80;;;23.30;60.10;;;;;;220094;1267;25443;-61
2022/09/03 20:59:15;;;;;;;12.90;5.80;;;23.30;60.70;;;;;;219901;1267;22722;-60
2022/09/03 21:04:50;;;;;;;18.00;6.20;;;23.30;60.10;;;;;;220257;1267;25442;-61
2022/09/03 21:09:58;;;;;;;12.90;5.80;;;23.30;60.60;;;;;;220371;1267;22543;-62
2022/09/03 21:15:17;;;;;;;21.90;5.60;;;23.40;61.10;;;;;;220042;1267;22595;-57
2022/09/03 21:20:21;;;;;;;16.50;5.20;;;23.30;60.80;;;;;;219940;1267;24026;-58
2022/09/03 21:25:43;;;;;;;14.10;6.00;;;23.40;61.30;;;;;;220732;1270;26732;-59
2022/09/03 21:30:55;;;;;;;13.80;5.60;;;23.40;61.00;;;;;;219955;1267;24277;-61
2022/09/03 21:36:24;;;;;;;17.60;5.10;;;23.50;61.50;;;;;;220097;1271;22654;-60
2022/09/03 21:41:52;;;;;;;9.60;5.30;;;23.40;60.80;;;;;;219949;1272;24234;-61
2022/09/03 21:47:01;;;;;;;12.10;4.60;;;23.50;61.00;;;;;;220033;1268;24967;-60
2022/09/03 21:52:13;;;;;;;12.30;5.10;;;23.50;61.10;;;;;;220069;1268;22545;-60
2022/09/03 21:57:51;;;;;;;12.10;4.70;;;23.40;61.10;;;;;;220098;1268;24226;-61
2022/09/03 22:02:57;;;;;;;10.50;5.30;;;23.40;61.20;;;;;;219927;1271;25141;-61
2022/09/03 22:08:23;;;;;;;9.50;4.50;;;23.40;61.40;;;;;;220176;1268;24219;-61
2022/09/03 22:13:57;;;;;;;9.50;4.50;;;23.40;61.00;;;;;;220215;1269;22533;-61
2022/09/03 22:19:02;;;;;;;8.70;4.80;;;23.50;61.10;;;;;;220007;1271;22611;-61
2022/09/03 22:24:21;;;;;;;8.40;4.50;;;23.40;61.00;;;;;;220162;1268;24214;-60
2022/09/03 22:29:39;;;;;;;8.40;4.30;;;23.40;60.80;;;;;;219943;1267;24765;-60
2022/09/03 22:35:02;;;;;;;11.40;4.90;;;23.50;60.90;;;;;;220002;1268;22570;-61
2022/09/03 22:40:18;;;;;;;10.20;4.70;;;23.40;60.90;;;;;;219739;1271;25325;-60
2022/09/03 22:45:53;;;;;;;10.90;4.60;;;23.40;60.80;;;;;;219741;1270;22699;-60
2022/09/03 22:50:59;;;;;;;9.20;4.60;;;23.40;60.70;;;;;;224490;1268;23845;-61
2022/09/03 22:56:17;;;;;;;10.30;5.10;;;23.50;60.70;;;;;;220191;1268;25480;-61
2022/09/03 23:01:29;;;;;;;13.20;5.50;;;23.50;62.00;;;;;;220425;1267;22589;-64
2022/09/03 23:06:38;;;;;;;10.60;4.90;;;23.50;62.00;;;;;;220379;1268;22719;-60
2022/09/03 23:11:49;;;;;;;12.60;5.00;;;23.40;61.10;;;;;;220422;1268;24263;-62
2022/09/03 23:17:06;;;;;;;12.80;5.60;;;23.40;61.00;;;;;;220177;1268;25247;-59
2022/09/03 23:22:16;;;;;;;10.10;5.00;;;23.40;60.80;;;;;;220247;1268;22762;-60
2022/09/03 23:27:30;;;;;;;11.00;4.50;;;23.40;60.80;;;;;;220458;1268;23026;-63
2022/09/03 23:32:34;;;;;;;9.30;5.70;;;23.30;60.70;;;;;;219819;1268;24262;-58
2022/09/03 23:38:02;;;;;;;11.30;4.80;;;23.30;60.70;;;;;;219719;1268;22563;-58
2022/09/03 23:43:30;;;;;;;8.20;4.70;;;23.30;61.00;;;;;;219884;1268;24260;-57
2022/09/03 23:48:56;;;;;;;9.70;4.60;;;23.30;60.90;;;;;;220354;1268;24276;-59
2022/09/03 23:54:22;;;;;;;9.90;4.80;;;23.30;60.70;;;;;;220450;1268;22660;-62
2022/09/03 23:59:45;;;;;;;6.80;4.30;;;23.30;60.70;;;;;;220218;1268;22635;-59
